createdAt,value
2022-09-26T00:01:21.135Z,8.57
2022-09-26T00:03:50.990Z,8.25
2022-09-26T00:06:21.403Z,8.85
2022-09-26T00:08:49.571Z,8.38
2022-09-26T00:11:19.693Z,8.95
2022-09-26T00:13:51.258Z,9.20
2022-09-26T00:16:17.757Z,8.18
2022-09-26T00:18:48.446Z,8.40
2022-09-26T00:21:15.293Z,8.82
2022-09-26T00:23:42.234Z,7.95
2022-09-26T00:26:09.948Z,7.95
2022-09-26T00:28:37.101Z,7.80
2022-09-26T00:31:28.173Z,8.32
2022-09-26T00:33:58.691Z,8.55
2022-09-26T00:36:37.093Z,8.60
2022-09-26T00:39:07.905Z,8.82
2022-09-26T00:41:37.651Z,8.43
2022-09-26T00:44:42.807Z,8.68
2022-09-26T00:47:49.846Z,9.27
2022-09-26T00:50:24.803Z,8.38
2022-09-26T00:52:57.896Z,8.18
2022-09-26T00:55:30.187Z,8.32
2022-09-26T00:58:04.442Z,7.68
2022-09-26T01:00:31.352Z,7.53
2022-09-26T01:02:58.446Z,6.90
2022-09-26T01:05:25.647Z,7.07
2022-09-26T01:07:53.860Z,7.25
2022-09-26T01:10:21.019Z,8.27
2022-09-26T01:12:47.849Z,7.85
2022-09-26T01:15:14.539Z,6.82
2022-09-26T01:17:43.530Z,6.63
2022-09-26T01:20:28.138Z,6.00
2022-09-26T01:23:14.648Z,6.38
2022-09-26T01:26:18.474Z,6.30
2022-09-26T01:29:00.048Z,6.43
2022-09-26T01:31:32.489Z,6.30
2022-09-26T01:34:27.968Z,5.85
2022-09-26T01:37:03.503Z,5.57
2022-09-26T01:39:56.170Z,5.70
2022-09-26T01:43:00.298Z,5.80
2022-09-26T01:45:39.372Z,5.65
2022-09-26T01:48:18.718Z,5.50
2022-09-26T01:50:57.606Z,5.30
2022-09-26T01:53:43.608Z,5.28
2022-09-26T01:56:20.021Z,5.05
2022-09-26T01:59:12.805Z,5.32
2022-09-26T02:01:43.639Z,5.32
2022-09-26T02:04:25.491Z,5.43
2022-09-26T02:07:00.487Z,5.15
2022-09-26T02:09:35.093Z,4.88
2022-09-26T02:12:09.574Z,4.95
2022-09-26T02:14:41.812Z,5.38
2022-09-26T02:17:15.297Z,4.93
2022-09-26T02:19:59.044Z,4.80
2022-09-26T02:22:43.443Z,5.03
2022-09-26T02:25:11.643Z,4.95
2022-09-26T02:27:38.570Z,4.85
2022-09-26T02:30:07.045Z,4.93
2022-09-26T02:32:34.209Z,4.65
2022-09-26T02:35:01.584Z,4.40
2022-09-26T02:37:28.869Z,4.53
2022-09-26T02:39:56.140Z,4.72
2022-09-26T02:42:36.609Z,4.97
2022-09-26T02:45:03.063Z,5.18
2022-09-26T02:47:44.762Z,5.40
2022-09-26T02:50:19.136Z,5.25
2022-09-26T02:53:16.083Z,5.72
2022-09-26T02:55:45.506Z,6.13
2022-09-26T02:58:18.011Z,5.50
2022-09-26T03:01:05.077Z,5.65
2022-09-26T03:03:40.786Z,6.20
2022-09-26T03:06:13.085Z,6.20
2022-09-26T03:08:44.034Z,5.95
2022-09-26T03:11:13.580Z,5.85
2022-09-26T03:13:40.633Z,5.70
2022-09-26T03:16:09.593Z,5.88
2022-09-26T03:18:45.010Z,6.32
2022-09-26T03:21:11.514Z,6.38
2022-09-26T03:23:38.477Z,5.43
2022-09-26T03:26:10.598Z,6.03
2022-09-26T03:28:38.115Z,5.53
2022-09-26T03:31:05.104Z,5.75
2022-09-26T03:33:31.578Z,5.22
2022-09-26T03:36:00.057Z,6.28
2022-09-26T03:38:27.580Z,6.03
2022-09-26T03:40:54.045Z,5.70
2022-09-26T03:43:21.662Z,5.13
2022-09-26T03:45:48.093Z,5.53
2022-09-26T03:48:16.631Z,5.57
2022-09-26T03:50:43.518Z,5.78
2022-09-26T03:53:10.404Z,5.30
2022-09-26T03:55:36.799Z,5.63
2022-09-26T03:58:03.532Z,5.30
2022-09-26T04:00:29.939Z,5.10
2022-09-26T04:02:57.750Z,5.25
2022-09-26T04:05:24.144Z,5.38
2022-09-26T04:07:50.582Z,5.40
2022-09-26T04:10:17.097Z,5.25
2022-09-26T04:12:44.591Z,5.45
2022-09-26T04:15:11.163Z,5.28
2022-09-26T04:17:37.555Z,5.35
2022-09-26T04:20:06.759Z,5.38
2022-09-26T04:22:33.414Z,5.13
2022-09-26T04:25:01.011Z,5.45
2022-09-26T04:27:28.809Z,5.43
2022-09-26T04:29:57.681Z,6.00
2022-09-26T04:32:26.421Z,6.05
2022-09-26T04:34:52.795Z,5.40
2022-09-26T04:37:20.954Z,5.28
2022-09-26T04:39:47.754Z,5.85
2022-09-26T04:42:14.295Z,5.75
2022-09-26T04:44:40.724Z,5.50
2022-09-26T04:47:07.148Z,5.85
2022-09-26T04:49:33.617Z,6.28
2022-09-26T04:52:00.097Z,5.75
2022-09-26T04:54:26.481Z,6.07
2022-09-26T04:56:52.899Z,5.43
2022-09-26T04:59:24.315Z,6.03
2022-09-26T05:01:50.788Z,6.07
2022-09-26T05:04:22.792Z,6.95
2022-09-26T05:06:51.803Z,6.75
2022-09-26T05:09:18.202Z,6.70
2022-09-26T05:11:44.669Z,6.18
2022-09-26T05:14:11.103Z,7.30
2022-09-26T05:16:39.796Z,5.72
2022-09-26T05:19:06.339Z,5.85
2022-09-26T05:21:32.811Z,5.63
2022-09-26T05:24:17.819Z,6.38
2022-09-26T05:26:47.741Z,6.20
2022-09-26T05:29:14.442Z,6.05
2022-09-26T05:31:41.055Z,5.60
2022-09-26T05:34:13.075Z,5.32
2022-09-26T05:36:43.002Z,5.35
2022-09-26T05:39:29.563Z,4.95
2022-09-26T05:41:58.091Z,4.78
2022-09-26T05:44:24.579Z,5.40
2022-09-26T05:46:51.933Z,5.15
2022-09-26T05:49:18.715Z,5.57
2022-09-26T05:51:46.440Z,5.05
2022-09-26T05:54:13.056Z,5.03
2022-09-26T05:56:39.439Z,5.53
2022-09-26T05:59:06.019Z,5.47
2022-09-26T06:01:34.080Z,5.35
2022-09-26T06:04:00.809Z,5.18
2022-09-26T06:06:27.259Z,5.25
2022-09-26T06:08:56.206Z,5.25
2022-09-26T06:11:24.911Z,6.05
2022-09-26T06:13:51.356Z,5.22
2022-09-26T06:16:20.705Z,5.63
2022-09-26T06:18:50.555Z,5.22
2022-09-26T06:21:18.980Z,5.47
2022-09-26T06:23:45.782Z,5.53
2022-09-26T06:26:19.966Z,5.40
2022-09-26T06:28:47.167Z,6.10
2022-09-26T06:31:22.055Z,5.75
2022-09-26T06:33:55.100Z,5.78
2022-09-26T06:36:26.057Z,5.60
2022-09-26T06:38:56.692Z,5.28
2022-09-26T06:41:25.963Z,6.15
2022-09-26T06:43:52.385Z,5.63
2022-09-26T06:46:18.895Z,5.00
2022-09-26T06:48:48.216Z,4.63
2022-09-26T06:51:15.226Z,5.07
2022-09-26T06:53:42.854Z,4.88
2022-09-26T06:56:09.285Z,4.80
2022-09-26T06:58:35.690Z,5.22
2022-09-26T07:01:02.642Z,5.72
2022-09-26T07:03:29.566Z,5.97
2022-09-26T07:05:56.671Z,6.13
2022-09-26T07:08:43.249Z,5.93
2022-09-26T07:11:32.595Z,4.93
2022-09-26T07:14:01.870Z,4.50
2022-09-26T07:16:28.890Z,4.97
2022-09-26T07:18:55.801Z,3.92
2022-09-26T07:21:22.447Z,3.92
2022-09-26T07:23:48.926Z,3.90
2022-09-26T07:26:15.371Z,3.38
2022-09-26T07:28:44.627Z,3.95
2022-09-26T07:31:11.129Z,4.20
2022-09-26T07:33:39.294Z,5.40
2022-09-26T07:36:09.696Z,5.20
2022-09-26T07:38:36.316Z,5.03
2022-09-26T07:41:02.991Z,4.28
2022-09-26T07:44:06.382Z,3.97
2022-09-26T07:46:34.623Z,4.53
2022-09-26T07:49:19.707Z,5.00
2022-09-26T07:51:46.176Z,5.38
2022-09-26T07:54:12.733Z,5.43
2022-09-26T07:56:40.283Z,5.30
2022-09-26T07:59:06.649Z,4.20
2022-09-26T08:01:33.112Z,4.75
2022-09-26T08:03:59.759Z,5.30
2022-09-26T08:06:27.544Z,6.30
2022-09-26T08:08:55.312Z,5.93
2022-09-26T08:11:22.395Z,5.50
2022-09-26T08:13:49.134Z,5.32
2022-09-26T08:16:20.653Z,5.90
2022-09-26T08:18:47.167Z,6.38
2022-09-26T08:21:13.560Z,6.35
2022-09-26T08:23:39.977Z,6.57
2022-09-26T08:26:09.719Z,5.90
2022-09-26T08:28:37.541Z,6.47
2022-09-26T08:31:05.247Z,5.97
2022-09-26T08:33:36.016Z,5.95
2022-09-26T08:36:15.421Z,5.75
2022-09-26T08:38:41.968Z,5.75
2022-09-26T08:41:17.691Z,5.90
2022-09-26T08:44:03.578Z,6.22
2022-09-26T08:46:51.254Z,5.65
2022-09-26T08:49:25.717Z,4.72
2022-09-26T08:51:54.260Z,5.05
2022-09-26T08:54:37.815Z,5.47
2022-09-26T08:57:14.018Z,5.20
2022-09-26T08:59:46.616Z,5.13
2022-09-26T09:02:30.610Z,5.00
2022-09-26T09:07:49.287Z,4.75
2022-09-26T09:10:19.031Z,4.38
2022-09-26T09:13:07.404Z,4.13
2022-09-26T09:15:59.714Z,4.22
2022-09-26T09:19:14.542Z,4.03
2022-09-26T09:22:10.046Z,4.32
2022-09-26T09:25:05.591Z,4.38
2022-09-26T09:28:05.518Z,3.53
2022-09-26T09:30:43.852Z,5.05
2022-09-26T09:33:15.684Z,4.25
2022-09-26T09:35:51.172Z,3.58
2022-09-26T09:38:21.108Z,3.20
2022-09-26T09:40:59.923Z,3.78
2022-09-26T09:43:41.085Z,3.33
2022-09-26T09:46:37.800Z,2.75
2022-09-26T09:49:10.314Z,3.47
2022-09-26T09:51:52.641Z,2.97
2022-09-26T09:54:31.343Z,3.22
2022-09-26T09:57:08.909Z,2.60
2022-09-26T10:00:07.634Z,2.97
2022-09-26T10:02:58.456Z,3.08
2022-09-26T10:05:46.879Z,2.75
2022-09-26T10:08:22.618Z,2.72
2022-09-26T10:11:23.919Z,2.70
2022-09-26T10:13:56.667Z,2.60
2022-09-26T10:16:25.127Z,2.70
2022-09-26T10:19:04.078Z,3.00
2022-09-26T10:21:39.264Z,2.83
2022-09-26T10:24:07.306Z,3.20
2022-09-26T10:26:35.341Z,3.60
2022-09-26T10:29:24.862Z,3.50
2022-09-26T10:31:56.441Z,3.60
2022-09-26T10:34:34.851Z,3.00
2022-09-26T10:37:23.842Z,3.40
2022-09-26T10:40:11.903Z,4.00
2022-09-26T10:42:38.650Z,3.50
2022-09-26T10:45:20.430Z,3.55
2022-09-26T10:47:51.274Z,3.50
2022-09-26T10:50:24.974Z,3.33
2022-09-26T10:55:31.081Z,3.80
2022-09-26T10:58:02.184Z,3.80
2022-09-26T11:00:37.724Z,3.65
2022-09-26T11:03:09.778Z,4.25
2022-09-26T11:06:00.292Z,3.67
2022-09-26T11:08:32.174Z,3.45
2022-09-26T11:11:04.785Z,3.70
2022-09-26T11:14:10.414Z,3.50
2022-09-26T11:16:57.216Z,3.33
2022-09-26T11:19:42.584Z,3.53
2022-09-26T11:22:26.024Z,3.05
2022-09-26T11:28:08.234Z,3.33
2022-09-26T11:33:25.901Z,3.50
2022-09-26T11:38:59.321Z,3.40
2022-09-26T11:41:37.329Z,3.20
2022-09-26T11:44:26.597Z,3.40
2022-09-26T11:47:11.277Z,3.30
2022-09-26T11:49:52.917Z,5.68
2022-09-26T11:52:38.213Z,3.72
2022-09-26T11:55:17.784Z,3.50
2022-09-26T11:57:48.498Z,3.15
2022-09-26T12:00:24.520Z,3.97
2022-09-26T12:03:14.793Z,6.50
2022-09-26T12:06:00.827Z,3.30
2022-09-26T12:09:13.273Z,3.33
2022-09-26T12:11:43.019Z,3.83
2022-09-26T12:14:22.249Z,3.15
2022-09-26T12:17:01.383Z,3.03
2022-09-26T12:19:55.671Z,3.80
2022-09-26T12:25:20.152Z,2.97
2022-09-26T12:28:20.176Z,6.13
2022-09-26T12:31:05.165Z,2.78
2022-09-26T12:33:58.643Z,3.60
2022-09-26T12:36:25.036Z,3.05
2022-09-26T12:38:57.957Z,2.72
2022-09-26T12:42:03.449Z,2.70
2022-09-26T12:44:49.883Z,2.40
2022-09-26T12:47:38.529Z,2.70
2022-09-26T12:50:29.240Z,2.65
2022-09-26T12:53:33.394Z,4.50
2022-09-26T12:56:10.966Z,5.10
2022-09-26T12:59:09.047Z,0.90
2022-09-26T13:01:58.480Z,1.20
2022-09-26T13:05:08.327Z,0.90
2022-09-26T13:07:42.063Z,0.80
2022-09-26T13:13:46.347Z,1.45
2022-09-26T13:16:30.842Z,1.30
2022-09-26T13:19:26.564Z,1.50
2022-09-26T13:22:01.679Z,0.80
2022-09-26T13:24:55.430Z,1.00
2022-09-26T13:27:28.590Z,1.00
2022-09-26T13:30:08.278Z,1.10
2022-09-26T13:33:00.627Z,0.70
2022-09-26T13:35:29.788Z,0.90
2022-09-26T13:38:34.724Z,1.00
2022-09-26T13:41:07.387Z,1.10
2022-09-26T13:43:39.730Z,1.48
2022-09-26T13:46:34.508Z,1.33
2022-09-26T13:49:19.848Z,1.40
2022-09-26T13:52:02.327Z,2.25
2022-09-26T13:54:54.171Z,4.35
2022-09-26T13:57:35.597Z,1.80
2022-09-26T14:00:31.230Z,2.05
2022-09-26T14:03:08.007Z,3.20
2022-09-26T14:05:44.229Z,3.25
2022-09-26T14:08:48.358Z,3.92
2022-09-26T14:11:34.353Z,8.38
2022-09-26T14:14:24.032Z,17.73
2022-09-26T14:16:53.379Z,2.33
2022-09-26T14:19:36.766Z,2.95
2022-09-26T14:22:19.024Z,3.03
2022-09-26T14:24:46.978Z,2.17
2022-09-26T14:27:28.935Z,2.05
2022-09-26T14:30:30.378Z,1.10
2022-09-26T14:33:10.228Z,1.00
2022-09-26T14:35:38.641Z,0.70
2022-09-26T14:38:16.255Z,1.02
2022-09-26T14:40:57.780Z,0.90
2022-09-26T14:43:28.336Z,0.95
2022-09-26T14:46:04.890Z,1.10
2022-09-26T14:48:41.772Z,1.10
2022-09-26T14:51:11.219Z,0.70
2022-09-26T14:53:40.264Z,1.10
2022-09-26T14:56:12.848Z,0.90
2022-09-26T14:58:39.732Z,2.10
2022-09-26T15:01:18.928Z,3.03
2022-09-26T15:03:59.735Z,1.48
2022-09-26T15:06:28.371Z,0.90
2022-09-26T15:08:56.379Z,1.00
2022-09-26T15:11:38.563Z,1.20
2022-09-26T15:14:21.362Z,0.98
2022-09-26T15:16:52.546Z,1.02
2022-09-26T15:19:42.744Z,1.23
2022-09-26T15:22:16.987Z,1.70
2022-09-26T15:24:43.557Z,1.60
2022-09-26T15:27:28.942Z,1.38
2022-09-26T15:30:06.430Z,1.17
2022-09-26T15:32:33.548Z,1.00
2022-09-26T15:35:02.384Z,1.30
2022-09-26T15:37:34.618Z,2.00
2022-09-26T15:40:31.860Z,3.20
2022-09-26T15:43:12.703Z,2.22
2022-09-26T15:46:04.552Z,2.28
2022-09-26T15:48:34.179Z,19.25
2022-09-26T15:51:11.278Z,29.40
2022-09-26T15:53:40.654Z,2.42
2022-09-26T15:56:09.666Z,2.58
2022-09-26T15:58:46.182Z,2.22
2022-09-26T16:01:21.394Z,1.90
2022-09-26T16:03:59.223Z,1.70
2022-09-26T16:06:34.791Z,1.90
2022-09-26T16:09:21.296Z,2.00
2022-09-26T16:11:53.266Z,2.00
2022-09-26T16:14:29.070Z,1.75
2022-09-26T16:17:18.841Z,1.83
2022-09-26T16:19:57.311Z,2.28
2022-09-26T16:22:26.933Z,1.98
2022-09-26T16:24:53.493Z,1.60
2022-09-26T16:27:33.517Z,1.55
2022-09-26T16:30:04.174Z,1.88
2022-09-26T16:32:33.986Z,2.25
2022-09-26T16:35:20.137Z,2.40
2022-09-26T16:38:01.233Z,2.00
2022-09-26T16:40:29.941Z,2.03
2022-09-26T16:43:19.075Z,2.38
2022-09-26T16:45:51.061Z,2.55
2022-09-26T16:48:40.626Z,3.00
2022-09-26T16:51:30.057Z,9.00
2022-09-26T16:54:08.510Z,5.95
2022-09-26T16:56:39.340Z,4.22
2022-09-26T16:59:14.654Z,3.67
2022-09-26T17:01:54.738Z,3.95
2022-09-26T17:04:31.418Z,3.65
2022-09-26T17:06:59.257Z,3.70
2022-09-26T17:09:29.747Z,2.95
2022-09-26T17:12:05.593Z,2.50
2022-09-26T17:14:40.667Z,3.03
2022-09-26T17:17:17.827Z,3.08
2022-09-26T17:19:47.622Z,3.13
2022-09-26T17:22:22.056Z,3.30
2022-09-26T17:24:49.595Z,3.67
2022-09-26T17:27:19.538Z,4.45
2022-09-26T17:29:49.594Z,4.38
2022-09-26T17:32:25.056Z,5.40
2022-09-26T17:34:51.684Z,6.70
2022-09-26T17:37:20.168Z,11.07
2022-09-26T17:39:51.602Z,13.65
2022-09-26T17:42:18.162Z,12.73
2022-09-26T17:44:48.171Z,14.48
2022-09-26T17:47:16.488Z,14.73
2022-09-26T17:49:48.178Z,8.90
2022-09-26T17:52:32.226Z,11.50
2022-09-26T17:55:04.218Z,17.55
2022-09-26T17:57:33.537Z,11.05
2022-09-26T18:00:05.642Z,13.43
2022-09-26T18:02:36.732Z,17.42
2022-09-26T18:05:10.466Z,31.45
2022-09-26T18:07:41.391Z,43.67
2022-09-26T18:10:17.073Z,24.00
2022-09-26T18:12:45.212Z,19.25
2022-09-26T18:15:16.595Z,35.35
2022-09-26T18:17:43.498Z,25.88
2022-09-26T18:20:09.987Z,20.20
2022-09-26T18:22:36.668Z,10.15
2022-09-26T18:25:14.911Z,11.63
2022-09-26T18:27:43.621Z,7.28
2022-09-26T18:30:13.662Z,5.75
2022-09-26T18:32:44.170Z,5.05
2022-09-26T18:35:27.706Z,4.47
2022-09-26T18:37:55.873Z,4.43
2022-09-26T18:40:28.668Z,3.97
2022-09-26T18:42:57.788Z,4.05
2022-09-26T18:45:32.693Z,3.85
2022-09-26T18:47:59.262Z,4.90
2022-09-26T18:50:36.764Z,5.50
2022-09-26T18:53:05.079Z,5.50
2022-09-26T18:55:50.070Z,5.53
2022-09-26T18:58:25.301Z,4.88
2022-09-26T19:00:55.165Z,4.82
2022-09-26T19:03:23.612Z,5.07
2022-09-26T19:05:52.375Z,5.15
2022-09-26T19:08:39.035Z,6.00
2022-09-26T19:11:20.055Z,5.85
2022-09-26T19:13:52.658Z,6.45
2022-09-26T19:16:19.870Z,7.40
2022-09-26T19:18:48.965Z,7.43
2022-09-26T19:21:21.477Z,7.18
2022-09-26T19:23:49.469Z,7.05
2022-09-26T19:26:25.401Z,7.93
2022-09-26T19:28:52.711Z,7.35
2022-09-26T19:31:19.245Z,6.93
2022-09-26T19:33:47.807Z,7.80
2022-09-26T19:36:17.831Z,8.15
2022-09-26T19:38:44.294Z,9.43
2022-09-26T19:41:11.235Z,10.20
2022-09-26T19:43:38.058Z,8.23
2022-09-26T19:46:07.148Z,8.05
2022-09-26T19:48:38.821Z,7.57
2022-09-26T19:51:06.830Z,6.78
2022-09-26T19:53:34.957Z,6.32
2022-09-26T19:56:01.773Z,5.43
2022-09-26T19:58:28.309Z,6.35
2022-09-26T20:01:01.955Z,5.15
2022-09-26T20:03:34.798Z,5.40
2022-09-26T20:06:01.745Z,6.03
2022-09-26T20:08:28.350Z,7.65
2022-09-26T20:10:59.156Z,6.57
2022-09-26T20:13:25.671Z,6.13
2022-09-26T20:15:52.294Z,5.60
2022-09-26T20:18:22.212Z,5.63
2022-09-26T20:20:53.346Z,6.60
2022-09-26T20:23:22.742Z,6.40
2022-09-26T20:25:51.751Z,5.90
2022-09-26T20:28:18.729Z,6.47
2022-09-26T20:30:51.277Z,6.25
2022-09-26T20:33:21.968Z,6.75
2022-09-26T20:36:01.866Z,5.85
2022-09-26T20:38:50.377Z,4.43
2022-09-26T20:41:38.794Z,5.03
2022-09-26T20:44:18.446Z,4.97
2022-09-26T20:46:55.860Z,5.85
2022-09-26T20:49:34.523Z,5.18
2022-09-26T20:52:02.397Z,4.50
2022-09-26T20:54:31.235Z,3.80
2022-09-26T20:56:59.035Z,3.60
2022-09-26T20:59:26.226Z,3.40
2022-09-26T21:01:54.504Z,3.78
2022-09-26T21:04:31.535Z,3.38
2022-09-26T21:06:58.564Z,4.20
2022-09-26T21:09:25.023Z,3.92
2022-09-26T21:11:51.566Z,4.25
2022-09-26T21:14:18.593Z,4.35
2022-09-26T21:16:48.029Z,4.10
2022-09-26T21:19:22.879Z,2.80
2022-09-26T21:21:53.368Z,3.58
2022-09-26T21:24:29.823Z,2.67
2022-09-26T21:26:56.425Z,2.55
2022-09-26T21:29:27.603Z,2.63
2022-09-26T21:31:56.086Z,2.17
2022-09-26T21:34:25.146Z,2.50
2022-09-26T21:36:55.323Z,2.25
2022-09-26T21:39:24.783Z,2.10
2022-09-26T21:41:56.641Z,2.65
2022-09-26T21:44:32.963Z,2.78
2022-09-26T21:46:59.399Z,2.30
2022-09-26T21:49:25.927Z,2.30
2022-09-26T21:52:00.661Z,2.17
2022-09-26T21:54:32.819Z,2.10
2022-09-26T21:57:09.680Z,2.35
2022-09-26T21:59:42.477Z,2.67
2022-09-26T22:02:09.026Z,2.50
2022-09-26T22:04:35.646Z,2.00
2022-09-26T22:07:02.223Z,2.38
2022-09-26T22:09:28.754Z,2.22
2022-09-26T22:11:55.187Z,2.22
2022-09-26T22:14:21.690Z,2.20
2022-09-26T22:16:48.192Z,2.03
2022-09-26T22:19:14.937Z,1.73
2022-09-26T22:21:43.043Z,1.95
2022-09-26T22:24:10.299Z,2.00
2022-09-26T22:26:36.819Z,1.88
2022-09-26T22:29:03.287Z,2.22
2022-09-26T22:31:29.886Z,2.00
2022-09-26T22:34:00.040Z,2.20
2022-09-26T22:36:29.501Z,1.60
2022-09-26T22:38:55.949Z,1.80
2022-09-26T22:41:22.406Z,2.25
2022-09-26T22:43:49.252Z,2.67
2022-09-26T22:46:16.405Z,2.17
2022-09-26T22:48:47.794Z,2.00
2022-09-26T22:51:16.166Z,1.63
2022-09-26T22:53:43.961Z,1.63
2022-09-26T22:56:13.779Z,1.70
2022-09-26T22:58:49.117Z,1.60
2022-09-26T23:01:36.184Z,1.90
2022-09-26T23:04:02.981Z,2.15
2022-09-26T23:06:31.273Z,2.40
2022-09-26T23:08:57.829Z,2.25
2022-09-26T23:11:24.842Z,2.33
2022-09-26T23:13:52.626Z,2.25
2022-09-26T23:16:21.569Z,2.10
2022-09-26T23:18:49.574Z,2.08
2022-09-26T23:21:24.180Z,2.30
2022-09-26T23:23:54.824Z,2.33
2022-09-26T23:26:27.920Z,2.25
2022-09-26T23:28:58.172Z,1.98
2022-09-26T23:31:26.142Z,2.05
2022-09-26T23:33:53.540Z,2.05
2022-09-26T23:36:20.254Z,1.98
2022-09-26T23:38:47.048Z,1.98
2022-09-26T23:41:14.578Z,1.98
2022-09-26T23:43:41.850Z,1.77
2022-09-26T23:46:11.111Z,1.88
2022-09-26T23:48:39.462Z,1.70
2022-09-26T23:51:06.053Z,2.05
2022-09-26T23:53:33.032Z,1.80
2022-09-26T23:56:08.848Z,1.52
2022-09-26T23:58:37.074Z,1.65
